Página principal
METAR-TAF:

METAR-TAF

Aeroportos :

Amã, Jordânia

latitude: 31-59N, longitude: 035-59E, altura: 767 m

Observação actual do tempo

O boletim foi feito há 40 minutos, às 09:00 UTC
Vento 11 kt de oes-sudoeste
Temperatura 26°C
Humidade 42%
Pressão 1013 hPa
Visibilidade: 5000 m
Nuvens fragmentadasa uma altura de 3000 ft
bruma

METAR: OJAM 170900Z 25011KT 5000 HZ BKN030 26/12 Q1013 NOSIG

Hora: 12:40 (09:40 UTC)

Previsão

O boletim foi feito há 4 horas e 40 minutos, às 05:00 UTC
Previsão válida de 17 às 06 UTC a 18 às 12 UTC
Vento 10 kt de oes-noroeste
Visibilidade: 5000 m
bruma

TAF: OJAM 170500Z 1706/1812 30010KT 5000 HZ NSC

Observações e previsões do tempo de mais de 4000 aeroportos (mensagens METAR e TAF).

As estações disponíveis são os pontos amarelos e vermelhos sobre o mapa.

Mova o rato sobre o mapa para ver o nome da estação.

Depois clique no ponto para visualizar as observações e previsões meteorológicas.

Para alterar o mapa : clique nos botões verdes com uma cruz preta para aumentar o zoom; no botão verde com uma pitada de zoom; ou nas setas verdes para mapas adjacentes.


METAR-TAF: